createdAt,value
2022-07-28T00:01:48.041Z,98089.78
2022-07-28T00:03:51.182Z,98093.81
2022-07-28T00:05:54.292Z,98092.78
2022-07-28T00:07:57.383Z,98089.16
2022-07-28T00:10:01.056Z,98089.97
2022-07-28T00:12:04.341Z,98083.84
2022-07-28T00:14:08.779Z,98086.50
2022-07-28T00:16:11.987Z,98088.00
2022-07-28T00:18:15.052Z,98087.13
2022-07-28T00:20:18.085Z,98086.50
2022-07-28T00:22:21.301Z,98073.88
2022-07-28T00:24:24.514Z,98072.09
2022-07-28T00:26:27.548Z,98078.22
2022-07-28T00:28:30.565Z,98075.41
2022-07-28T00:30:34.962Z,98072.91
2022-07-28T00:32:39.124Z,98073.25
2022-07-28T00:34:42.223Z,98060.16
2022-07-28T00:36:45.545Z,98065.63
2022-07-28T00:38:48.882Z,98066.63
2022-07-28T00:41:09.597Z,98063.50
2022-07-28T00:43:13.040Z,98065.66
2022-07-28T00:45:16.276Z,98056.03
2022-07-28T00:47:21.154Z,98066.81
2022-07-28T00:49:24.506Z,98062.66
2022-07-28T00:51:28.292Z,98064.50
2022-07-28T00:53:31.576Z,98067.31
2022-07-28T00:55:34.686Z,98076.25
2022-07-28T00:57:57.731Z,98068.31
2022-07-28T01:00:00.728Z,98066.00
2022-07-28T01:02:04.346Z,98062.69
2022-07-28T01:04:08.998Z,98060.19
2022-07-28T01:06:24.409Z,98062.22
2022-07-28T01:08:31.244Z,98058.06
2022-07-28T01:10:39.287Z,98050.25
2022-07-28T01:12:52.154Z,98052.06
2022-07-28T01:15:03.193Z,98045.44
2022-07-28T01:17:10.929Z,98050.09
2022-07-28T01:19:29.614Z,98043.28
2022-07-28T01:21:35.521Z,98046.28
2022-07-28T01:23:53.153Z,98049.94
2022-07-28T01:26:09.979Z,98049.09
2022-07-28T01:28:22.913Z,98053.56
2022-07-28T01:30:31.500Z,98053.72
2022-07-28T01:32:39.084Z,98059.03
2022-07-28T01:34:47.261Z,98048.44
2022-07-28T01:36:56.420Z,98045.13
2022-07-28T01:39:00.195Z,98048.09
2022-07-28T01:41:04.025Z,98046.97
2022-07-28T01:43:09.051Z,98044.31
2022-07-28T01:45:16.997Z,98041.50
2022-07-28T01:47:23.061Z,98039.84
2022-07-28T01:49:27.606Z,98039.50
2022-07-28T01:51:32.040Z,98034.22
2022-07-28T01:53:37.691Z,98039.50
2022-07-28T01:55:44.333Z,98037.84
2022-07-28T01:57:48.057Z,98028.41
2022-07-28T01:59:52.229Z,98026.44
2022-07-28T02:01:55.613Z,98018.81
2022-07-28T02:04:01.594Z,98025.25
2022-07-28T02:06:06.872Z,98023.28
2022-07-28T02:08:10.939Z,98026.91
2022-07-28T02:10:17.035Z,98021.94
2022-07-28T02:12:20.532Z,98020.94
2022-07-28T02:14:24.693Z,98021.94
2022-07-28T02:16:28.777Z,98017.28
2022-07-28T02:18:32.492Z,98018.31
2022-07-28T02:20:37.433Z,98019.94
2022-07-28T02:22:41.661Z,98018.31
2022-07-28T02:24:45.150Z,98018.78
2022-07-28T02:26:51.932Z,98014.66
2022-07-28T02:28:56.407Z,98011.50
2022-07-28T02:31:03.894Z,98017.91
2022-07-28T02:33:12.507Z,98014.78
2022-07-28T02:35:19.186Z,98016.25
2022-07-28T02:37:25.975Z,98018.06
2022-07-28T02:39:33.583Z,98012.28
2022-07-28T02:41:40.452Z,98010.94
2022-07-28T02:43:49.897Z,98007.63
2022-07-28T02:45:57.012Z,98011.59
2022-07-28T02:48:03.322Z,98005.97
2022-07-28T02:50:07.530Z,98011.56
2022-07-28T02:52:11.305Z,98011.25
2022-07-28T02:54:16.211Z,98005.75
2022-07-28T02:56:19.492Z,98006.91
2022-07-28T02:58:24.445Z,98000.28
2022-07-28T03:00:28.027Z,98011.19
2022-07-28T03:02:33.492Z,98001.56
2022-07-28T03:04:55.564Z,98006.22
2022-07-28T03:06:58.674Z,98013.50
2022-07-28T03:09:02.496Z,98012.78
2022-07-28T03:11:09.679Z,98016.44
2022-07-28T03:13:12.707Z,98014.28
2022-07-28T03:15:15.905Z,98009.16
2022-07-28T03:17:19.305Z,98016.25
2022-07-28T03:19:22.364Z,98016.41
2022-07-28T03:21:25.500Z,98013.09
2022-07-28T03:23:33.156Z,98019.34
2022-07-28T03:25:44.040Z,98015.91
2022-07-28T03:27:51.239Z,98009.09
2022-07-28T03:30:03.144Z,98004.66
2022-07-28T03:32:07.927Z,98010.75
2022-07-28T03:34:11.944Z,98010.94
2022-07-28T03:36:18.648Z,98000.66
2022-07-28T03:38:24.645Z,98002.97
2022-07-28T03:40:29.972Z,97999.50
2022-07-28T03:42:34.470Z,98009.06
2022-07-28T03:44:39.634Z,98005.72
2022-07-28T03:46:45.277Z,98012.31
2022-07-28T03:48:48.457Z,98004.53
2022-07-28T03:50:51.549Z,98003.88
2022-07-28T03:52:55.334Z,98005.72
2022-07-28T03:54:58.449Z,98009.66
2022-07-28T03:57:01.457Z,98014.13
2022-07-28T03:59:04.491Z,98009.50
2022-07-28T04:01:09.208Z,98015.22
2022-07-28T04:03:36.594Z,98014.03
2022-07-28T04:05:35.276Z,98017.00
2022-07-28T04:07:38.312Z,98014.63
2022-07-28T04:09:41.482Z,98020.66
2022-07-28T04:11:44.653Z,98014.91
2022-07-28T04:13:47.689Z,98016.53
2022-07-28T04:15:51.096Z,98019.66
2022-07-28T04:17:56.588Z,98023.66
2022-07-28T04:19:59.749Z,98024.00
2022-07-28T04:22:02.850Z,98026.97
2022-07-28T04:24:06.967Z,98023.34
2022-07-28T04:26:10.154Z,98023.03
2022-07-28T04:28:13.153Z,98025.69
2022-07-28T04:30:18.131Z,98031.53
2022-07-28T04:32:21.150Z,98025.38
2022-07-28T04:34:25.540Z,98029.38
2022-07-28T04:36:28.509Z,98028.88
2022-07-28T04:38:31.509Z,98024.56
2022-07-28T04:40:34.884Z,98028.41
2022-07-28T04:42:39.709Z,98029.72
2022-07-28T04:44:43.282Z,98018.97
2022-07-28T04:46:46.326Z,98027.44
2022-07-28T04:48:49.565Z,98033.72
2022-07-28T04:50:54.049Z,98022.34
2022-07-28T04:52:57.084Z,98035.09
2022-07-28T04:55:00.172Z,98032.81
2022-07-28T04:57:04.613Z,98030.16
2022-07-28T04:59:13.535Z,98028.22
2022-07-28T05:01:21.588Z,98029.88
2022-07-28T05:03:24.806Z,98031.88
2022-07-28T05:05:28.105Z,98038.66
2022-07-28T05:07:32.491Z,98028.56
2022-07-28T05:09:35.619Z,98039.19
2022-07-28T05:11:38.676Z,98037.19
2022-07-28T05:13:41.780Z,98039.00
2022-07-28T05:15:44.792Z,98036.34
2022-07-28T05:17:48.032Z,98037.03
2022-07-28T05:19:51.350Z,98045.63
2022-07-28T05:21:54.356Z,98052.25
2022-07-28T05:23:58.879Z,98049.28
2022-07-28T05:26:01.922Z,98044.28
2022-07-28T05:28:05.341Z,98042.81
2022-07-28T05:30:10.377Z,98033.53
2022-07-28T05:32:17.310Z,98050.09
2022-07-28T05:34:21.067Z,98042.81
2022-07-28T05:36:24.246Z,98036.00
2022-07-28T05:38:27.651Z,98041.34
2022-07-28T05:40:32.061Z,98037.34
2022-07-28T05:42:36.773Z,98050.06
2022-07-28T05:44:39.801Z,98051.84
2022-07-28T05:46:43.299Z,98048.94
2022-07-28T05:48:47.227Z,98052.69
2022-07-28T05:50:51.754Z,98046.22
2022-07-28T05:52:55.002Z,98047.25
2022-07-28T05:54:58.075Z,98042.13
2022-07-28T05:57:02.545Z,98058.91
2022-07-28T05:59:09.807Z,98046.03
2022-07-28T06:01:12.872Z,98057.03
2022-07-28T06:03:16.058Z,98050.66
2022-07-28T06:05:20.625Z,98058.16
2022-07-28T06:07:23.650Z,98055.59
2022-07-28T06:09:46.793Z,98057.59
2022-07-28T06:11:50.489Z,98045.91
2022-07-28T06:13:57.532Z,98050.06
2022-07-28T06:16:00.972Z,98052.66
2022-07-28T06:18:04.002Z,98051.09
2022-07-28T06:20:08.142Z,98054.41
2022-07-28T06:22:11.329Z,98052.38
2022-07-28T06:24:14.900Z,98060.47
2022-07-28T06:26:18.306Z,98067.28
2022-07-28T06:28:21.684Z,98071.34
2022-07-28T06:30:26.338Z,98073.66
2022-07-28T06:32:29.642Z,98067.94
2022-07-28T06:34:32.927Z,98066.47
2022-07-28T06:36:36.042Z,98069.53
2022-07-28T06:38:39.114Z,98052.59
2022-07-28T06:40:43.685Z,98064.44
2022-07-28T06:42:47.704Z,98062.88
2022-07-28T06:44:58.778Z,98065.44
2022-07-28T06:47:04.268Z,98071.47
2022-07-28T06:49:07.614Z,98062.06
2022-07-28T06:51:10.785Z,98069.06
2022-07-28T06:53:13.957Z,98059.19
2022-07-28T06:55:17.063Z,98058.59
2022-07-28T06:57:20.358Z,98064.38
2022-07-28T06:59:23.493Z,98071.59
2022-07-28T07:01:26.698Z,98063.75
2022-07-28T07:03:31.139Z,98066.44
2022-07-28T07:05:34.341Z,98060.22
2022-07-28T07:07:41.147Z,98060.84
2022-07-28T07:09:46.359Z,98059.16
2022-07-28T07:11:49.650Z,98060.81
2022-07-28T07:13:52.744Z,98056.06
2022-07-28T07:15:55.939Z,98058.69
2022-07-28T07:17:59.049Z,98052.03
2022-07-28T07:20:03.521Z,98056.97
2022-07-28T07:22:06.847Z,98054.78
2022-07-28T07:24:11.557Z,98050.28
2022-07-28T07:26:14.987Z,98053.75
2022-07-28T07:28:18.118Z,98047.69
2022-07-28T07:30:21.522Z,98044.56
2022-07-28T07:32:24.691Z,98048.03
2022-07-28T07:34:27.862Z,98040.13
2022-07-28T07:36:32.617Z,98029.91
2022-07-28T07:38:35.805Z,98047.63
2022-07-28T07:40:39.196Z,98025.78
2022-07-28T07:42:42.353Z,98033.41
2022-07-28T07:44:49.995Z,98028.38
2022-07-28T07:46:53.997Z,98028.91
2022-07-28T07:48:57.239Z,98036.22
2022-07-28T07:51:00.375Z,98038.69
2022-07-28T07:53:05.444Z,98032.72
2022-07-28T07:55:09.635Z,98041.06
2022-07-28T07:57:12.740Z,98035.28
2022-07-28T07:59:15.874Z,98038.63
2022-07-28T08:01:19.442Z,98039.72
2022-07-28T08:03:26.508Z,98032.47
2022-07-28T08:05:34.927Z,98036.19
2022-07-28T08:07:40.085Z,98031.69
2022-07-28T08:09:44.515Z,98033.63
2022-07-28T08:11:48.917Z,98037.13
2022-07-28T08:13:52.107Z,98035.03
2022-07-28T08:15:55.217Z,98030.03
2022-07-28T08:18:00.201Z,98031.06
2022-07-28T08:20:04.382Z,98034.81
2022-07-28T08:22:07.496Z,98038.50
2022-07-28T08:24:11.030Z,98038.78
2022-07-28T08:26:22.207Z,98032.25
2022-07-28T08:28:25.308Z,98033.97
2022-07-28T08:30:32.415Z,98018.25
2022-07-28T08:32:36.700Z,98027.16
2022-07-28T08:34:39.855Z,98022.19
2022-07-28T08:36:42.936Z,98024.06
2022-07-28T08:38:46.057Z,98018.25
2022-07-28T08:40:51.237Z,98021.25
2022-07-28T08:42:59.857Z,98022.59
2022-07-28T08:45:05.397Z,98026.97
2022-07-28T08:47:11.310Z,98015.53
2022-07-28T08:49:15.035Z,98023.50
2022-07-28T08:51:18.244Z,98027.66
2022-07-28T08:53:21.883Z,98019.13
2022-07-28T08:55:32.099Z,98021.25
2022-07-28T08:57:36.414Z,98008.56
2022-07-28T08:59:41.332Z,98023.25
2022-07-28T09:01:44.557Z,98016.31
2022-07-28T09:03:47.831Z,98010.84
2022-07-28T09:05:51.039Z,98020.22
2022-07-28T09:07:55.934Z,98002.06
2022-07-28T09:10:02.510Z,98003.72
2022-07-28T09:12:07.161Z,98003.34
2022-07-28T09:14:10.611Z,98000.28
2022-07-28T09:16:16.108Z,98011.75
2022-07-28T09:18:20.480Z,97999.84
2022-07-28T09:20:25.024Z,97994.03
2022-07-28T09:22:28.410Z,97985.34
2022-07-28T09:24:35.784Z,97990.81
2022-07-28T09:26:39.192Z,97982.34
2022-07-28T09:28:50.108Z,97986.13
2022-07-28T09:30:54.466Z,97993.84
2022-07-28T09:33:41.801Z,97991.16
2022-07-28T09:35:47.882Z,97985.69
2022-07-28T09:38:00.492Z,97982.47
2022-07-28T09:40:12.020Z,97988.25
2022-07-28T09:42:15.419Z,97991.22
2022-07-28T09:44:22.094Z,97980.72
2022-07-28T09:46:29.379Z,97987.84
2022-07-28T09:48:35.237Z,97978.19
2022-07-28T09:50:38.817Z,97981.50
2022-07-28T09:52:41.875Z,97976.66
2022-07-28T09:55:01.299Z,97968.81
2022-07-28T09:57:04.656Z,97970.66
2022-07-28T09:59:08.547Z,97963.97
2022-07-28T10:01:13.769Z,97956.72
2022-07-28T10:03:25.813Z,97972.88
2022-07-28T10:05:41.764Z,97952.75
2022-07-28T10:07:50.111Z,97962.50
2022-07-28T10:10:00.041Z,97946.56
2022-07-28T10:12:16.934Z,97955.81
2022-07-28T10:14:23.240Z,97952.78
2022-07-28T10:16:30.091Z,97951.59
2022-07-28T10:18:33.336Z,97952.50
2022-07-28T10:20:38.306Z,97954.38
2022-07-28T10:22:44.409Z,97949.47
2022-07-28T10:24:50.074Z,97955.13
2022-07-28T10:26:53.549Z,97957.03
2022-07-28T10:28:57.542Z,97942.94
2022-07-28T10:31:03.052Z,97950.44
2022-07-28T10:33:10.145Z,97941.28
2022-07-28T10:35:15.276Z,97933.84
2022-07-28T10:37:20.231Z,97945.06
2022-07-28T10:39:27.029Z,97932.84
2022-07-28T10:41:35.454Z,97930.06
2022-07-28T10:43:42.916Z,97930.97
2022-07-28T10:46:05.110Z,97921.19
2022-07-28T10:48:09.718Z,97926.06
2022-07-28T10:50:14.619Z,97926.34
2022-07-28T10:54:48.181Z,97930.53
2022-07-28T10:56:53.206Z,97926.31
2022-07-28T10:59:06.693Z,97927.22
2022-07-28T11:01:17.122Z,97931.63
2022-07-28T11:03:42.523Z,97936.56
2022-07-28T11:05:47.231Z,97924.69
2022-07-28T11:07:50.475Z,97920.88
2022-07-28T11:09:54.940Z,97935.06
2022-07-28T11:11:59.050Z,97916.75
2022-07-28T11:14:32.146Z,97909.16
2022-07-28T11:16:36.762Z,97906.47
2022-07-28T11:19:07.981Z,97914.91
2022-07-28T11:21:27.914Z,97910.47
2022-07-28T11:23:55.958Z,97926.16
2022-07-28T11:26:38.116Z,97912.19
2022-07-28T11:29:10.934Z,97910.69
2022-07-28T11:31:17.007Z,97922.50
2022-07-28T11:33:21.396Z,97903.78
2022-07-28T11:35:26.506Z,97903.63
2022-07-28T11:37:29.657Z,97905.88
2022-07-28T11:39:43.422Z,97907.66
2022-07-28T11:41:48.282Z,97910.66
2022-07-28T11:43:52.518Z,97909.34
2022-07-28T11:46:25.799Z,97901.91
2022-07-28T11:48:30.142Z,97899.91
2022-07-28T11:50:33.270Z,97901.03
2022-07-28T11:52:37.586Z,97904.03
2022-07-28T11:54:41.718Z,97899.16
2022-07-28T11:56:45.486Z,97897.44
2022-07-28T11:58:57.357Z,97897.44
2022-07-28T12:01:21.465Z,97895.44
2022-07-28T12:03:49.696Z,97890.97
2022-07-28T12:05:59.108Z,97894.22
2022-07-28T12:08:02.983Z,97884.59
2022-07-28T12:10:56.621Z,97893.63
2022-07-28T12:13:01.693Z,97892.41
2022-07-28T12:15:07.699Z,97892.19
2022-07-28T12:17:11.034Z,97885.97
2022-07-28T12:19:16.657Z,97886.13
2022-07-28T12:21:36.698Z,97891.75
2022-07-28T12:23:45.756Z,97891.94
2022-07-28T12:25:52.598Z,97878.94
2022-07-28T12:27:56.157Z,97873.97
2022-07-28T12:29:59.993Z,97880.03
2022-07-28T12:32:06.541Z,97882.50
2022-07-28T12:34:11.495Z,97877.94
2022-07-28T12:36:18.872Z,97866.63
2022-07-28T12:38:22.946Z,97867.47
2022-07-28T12:40:30.505Z,97871.34
2022-07-28T12:42:33.611Z,97859.88
2022-07-28T12:44:37.849Z,97860.78
2022-07-28T12:46:48.698Z,97859.75
2022-07-28T12:48:55.745Z,97864.94
2022-07-28T12:50:59.667Z,97863.34
2022-07-28T12:53:04.779Z,97865.81
2022-07-28T12:55:30.635Z,97860.28
2022-07-28T12:57:49.964Z,97861.47
2022-07-28T12:59:53.784Z,97856.78
2022-07-28T13:01:58.385Z,97854.00
2022-07-28T13:04:03.113Z,97861.34
2022-07-28T13:06:11.775Z,97859.97
2022-07-28T13:08:14.878Z,97855.97
2022-07-28T13:10:22.065Z,97856.66
2022-07-28T13:12:26.452Z,97858.75
2022-07-28T13:14:42.450Z,97858.91
2022-07-28T13:16:58.376Z,97859.75
2022-07-28T13:19:04.450Z,97858.91
2022-07-28T13:21:07.849Z,97849.25
2022-07-28T13:23:10.905Z,97853.13
2022-07-28T13:25:14.696Z,97850.44
2022-07-28T13:27:18.166Z,97841.53
2022-07-28T13:29:22.359Z,97849.38
2022-07-28T13:31:25.523Z,97856.03
2022-07-28T13:33:28.784Z,97847.97
2022-07-28T13:35:33.421Z,97843.66
2022-07-28T13:37:37.198Z,97844.81
2022-07-28T13:39:40.436Z,97846.22
2022-07-28T13:41:56.643Z,97841.59
2022-07-28T13:44:01.935Z,97847.56
2022-07-28T13:46:05.384Z,97839.00
2022-07-28T13:48:08.963Z,97844.97
2022-07-28T13:50:12.241Z,97835.00
2022-07-28T13:52:27.706Z,97844.50
2022-07-28T13:54:36.533Z,97840.75
2022-07-28T13:56:41.049Z,97827.88
2022-07-28T13:58:44.210Z,97830.19
2022-07-28T14:00:47.420Z,97836.06
2022-07-28T14:02:52.214Z,97830.91
2022-07-28T14:04:56.092Z,97825.97
2022-07-28T14:06:59.518Z,97824.09
2022-07-28T14:09:05.938Z,97827.03
2022-07-28T14:11:09.470Z,97828.69
2022-07-28T14:13:12.701Z,97816.00
2022-07-28T14:15:15.782Z,97814.25
2022-07-28T14:19:46.066Z,97813.31
2022-07-28T14:21:51.833Z,97810.38
2022-07-28T14:23:55.018Z,97814.97
2022-07-28T14:26:25.284Z,97811.66
2022-07-28T14:28:23.754Z,97803.84
2022-07-28T14:30:28.332Z,97812.50
2022-07-28T14:32:31.615Z,97804.56
2022-07-28T14:34:34.965Z,97795.44
2022-07-28T14:36:38.152Z,97800.47
2022-07-28T14:38:56.740Z,97804.91
2022-07-28T14:41:01.293Z,97796.25
2022-07-28T14:43:05.029Z,97792.47
2022-07-28T14:45:11.715Z,97798.50
2022-07-28T14:47:15.519Z,97797.19
2022-07-28T14:49:19.034Z,97795.56
2022-07-28T14:51:26.849Z,97795.09
2022-07-28T14:53:29.883Z,97797.66
2022-07-28T14:55:33.133Z,97791.19
2022-07-28T14:57:47.994Z,97790.97
2022-07-28T14:59:51.823Z,97787.47
2022-07-28T15:01:55.003Z,97780.19
2022-07-28T15:03:58.354Z,97782.53
2022-07-28T15:06:01.999Z,97780.44
2022-07-28T15:08:05.596Z,97772.72
2022-07-28T15:10:09.697Z,97775.16
2022-07-28T15:12:12.715Z,97773.03
2022-07-28T15:14:21.197Z,97780.41
2022-07-28T15:16:25.235Z,97771.53
2022-07-28T15:18:28.702Z,97769.97
2022-07-28T15:20:32.443Z,97774.78
2022-07-28T15:22:36.075Z,97776.56
2022-07-28T15:24:41.485Z,97772.56
2022-07-28T15:26:49.162Z,97772.09
2022-07-28T15:28:52.397Z,97778.66
2022-07-28T15:30:59.176Z,97780.28
2022-07-28T15:33:02.796Z,97777.81
2022-07-28T15:35:06.754Z,97771.06
2022-07-28T15:37:10.011Z,97772.81
2022-07-28T15:39:14.884Z,97775.03
2022-07-28T15:41:18.325Z,97765.81
2022-07-28T15:43:23.627Z,97767.56
2022-07-28T15:45:27.694Z,97762.03
2022-07-28T15:47:33.857Z,97758.78
2022-07-28T15:49:36.976Z,97766.84
2022-07-28T15:51:40.741Z,97764.41
2022-07-28T15:53:46.090Z,97757.38
2022-07-28T15:55:51.460Z,97762.19
2022-07-28T15:57:55.711Z,97749.75
2022-07-28T15:59:59.045Z,97745.66
2022-07-28T16:02:02.797Z,97738.88
2022-07-28T16:04:07.581Z,97746.59
2022-07-28T16:06:10.738Z,97745.22
2022-07-28T16:08:13.954Z,97746.81
2022-07-28T16:10:17.234Z,97743.91
2022-07-28T16:12:21.754Z,97755.97
2022-07-28T16:14:25.220Z,97739.22
2022-07-28T16:16:28.381Z,97742.38
2022-07-28T16:18:32.164Z,97733.97
2022-07-28T16:20:36.657Z,97736.88
2022-07-28T16:22:40.812Z,97729.19
2022-07-28T16:24:43.939Z,97735.03
2022-07-28T16:26:47.048Z,97723.91
2022-07-28T16:28:50.245Z,97720.84
2022-07-28T16:30:53.929Z,97715.13
2022-07-28T16:32:58.551Z,97712.78
2022-07-28T16:35:01.784Z,97720.13
2022-07-28T16:37:06.395Z,97713.31
2022-07-28T16:39:09.780Z,97714.50
2022-07-28T16:41:12.853Z,97705.97
2022-07-28T16:43:19.546Z,97717.69
2022-07-28T16:45:22.705Z,97718.88
2022-07-28T16:47:25.823Z,97722.63
2022-07-28T16:49:29.202Z,97725.75
2022-07-28T16:51:32.351Z,97716.50
2022-07-28T16:53:36.876Z,97718.38
2022-07-28T16:55:41.707Z,97717.78
2022-07-28T16:57:44.835Z,97714.75
2022-07-28T16:59:49.269Z,97706.91
2022-07-28T17:01:52.513Z,97710.88
2022-07-28T17:03:55.763Z,97713.69
2022-07-28T17:05:58.984Z,97703.97
2022-07-28T17:08:04.820Z,97711.81
2022-07-28T17:10:10.321Z,97707.47
2022-07-28T17:12:13.399Z,97712.06
2022-07-28T17:14:18.908Z,97711.25
2022-07-28T17:16:22.139Z,97709.94
2022-07-28T17:18:25.397Z,97711.59
2022-07-28T17:20:28.604Z,97710.78
2022-07-28T17:22:31.753Z,97712.16
2022-07-28T17:24:34.985Z,97706.69
2022-07-28T17:27:35.139Z,97721.41
2022-07-28T17:29:02.533Z,97708.66
2022-07-28T17:31:05.748Z,97705.38
2022-07-28T17:33:09.130Z,97712.84
2022-07-28T17:35:31.589Z,97718.22
2022-07-28T17:37:35.427Z,97710.03
2022-07-28T17:39:38.592Z,97717.97
2022-07-28T17:41:43.209Z,97720.28
2022-07-28T17:43:46.397Z,97723.91
2022-07-28T17:45:49.823Z,97735.34
2022-07-28T17:47:53.001Z,97733.09
2022-07-28T17:49:56.381Z,97736.47
2022-07-28T17:52:00.179Z,97735.06
2022-07-28T17:54:03.257Z,97737.63
2022-07-28T17:56:08.867Z,97747.75
2022-07-28T17:58:19.101Z,97737.69
2022-07-28T18:00:25.793Z,97741.53
2022-07-28T18:02:28.944Z,97742.44
2022-07-28T18:04:32.102Z,97740.69
2022-07-28T18:06:36.798Z,97754.41
2022-07-28T18:08:40.067Z,97744.31
2022-07-28T18:10:43.154Z,97741.47
2022-07-28T18:12:46.331Z,97744.84
2022-07-28T18:14:50.876Z,97747.38
2022-07-28T18:16:54.085Z,97743.94
2022-07-28T18:18:57.286Z,97733.28
2022-07-28T18:21:00.503Z,97731.28
2022-07-28T18:23:03.536Z,97734.19
2022-07-28T18:25:08.896Z,97735.09
2022-07-28T18:27:12.471Z,97741.94
2022-07-28T18:29:15.636Z,97737.22
2022-07-28T18:31:21.763Z,97734.63
2022-07-28T18:33:25.764Z,97730.50
2022-07-28T18:35:29.663Z,97728.72
2022-07-28T18:37:32.770Z,97728.09
2022-07-28T18:39:35.853Z,97724.25
2022-07-28T18:41:46.199Z,97720.94
2022-07-28T18:43:50.640Z,97731.06
2022-07-28T18:45:53.740Z,97731.06
2022-07-28T18:47:59.653Z,97730.94
2022-07-28T18:50:03.101Z,97724.56
2022-07-28T18:52:07.072Z,97726.91
2022-07-28T18:54:10.328Z,97738.06
2022-07-28T18:56:13.646Z,97733.34
2022-07-28T18:58:16.789Z,97728.66
2022-07-28T19:00:21.297Z,97731.78
2022-07-28T19:02:26.366Z,97731.84
2022-07-28T19:04:31.279Z,97725.25
2022-07-28T19:06:34.437Z,97725.91
2022-07-28T19:08:37.652Z,97724.66
2022-07-28T19:10:40.871Z,97727.78
2022-07-28T19:12:44.179Z,97738.94
2022-07-28T19:14:47.297Z,97735.88
2022-07-28T19:16:50.448Z,97740.25
2022-07-28T19:18:54.437Z,97739.66
2022-07-28T19:20:59.236Z,97736.00
2022-07-28T19:23:05.382Z,97745.28
2022-07-28T19:25:09.635Z,97744.91
2022-07-28T19:27:12.787Z,97754.41
2022-07-28T19:29:15.805Z,97763.09
2022-07-28T19:31:18.929Z,97770.75
2022-07-28T19:33:22.103Z,97769.91
2022-07-28T19:35:27.805Z,97774.06
2022-07-28T19:37:32.411Z,97783.13
2022-07-28T19:39:37.249Z,97778.78
2022-07-28T19:41:40.506Z,97783.56
2022-07-28T19:43:43.729Z,97772.03
2022-07-28T19:45:46.936Z,97779.22
2022-07-28T19:47:50.237Z,97783.38
2022-07-28T19:49:53.325Z,97790.59
2022-07-28T19:51:56.706Z,97794.75
2022-07-28T19:54:01.283Z,97791.03
2022-07-28T19:56:08.839Z,97799.50
2022-07-28T19:58:12.607Z,97797.25
2022-07-28T20:00:17.523Z,97797.25
2022-07-28T20:02:21.105Z,97792.31
2022-07-28T20:04:24.246Z,97801.38
2022-07-28T20:06:27.354Z,97804.03
2022-07-28T20:08:30.971Z,97796.22
2022-07-28T20:10:35.544Z,97803.22
2022-07-28T20:12:38.794Z,97812.06
2022-07-28T20:14:41.938Z,97806.72
2022-07-28T20:16:46.687Z,97814.97
2022-07-28T20:18:50.087Z,97828.34
2022-07-28T20:20:53.531Z,97830.63
2022-07-28T20:22:57.039Z,97837.00
2022-07-28T20:25:00.345Z,97844.22
2022-07-28T20:27:06.509Z,97837.22
2022-07-28T20:29:09.847Z,97851.66
2022-07-28T20:31:16.829Z,97860.72
2022-07-28T20:33:20.273Z,97859.91
2022-07-28T20:35:23.405Z,97871.41
2022-07-28T20:37:36.182Z,97892.84
2022-07-28T20:39:45.228Z,97896.53
2022-07-28T20:41:49.553Z,97900.06
2022-07-28T20:44:18.433Z,97903.34
2022-07-28T20:46:18.449Z,97903.34
2022-07-28T20:48:21.645Z,97899.63
2022-07-28T20:50:25.100Z,97902.31
2022-07-28T20:52:28.244Z,97909.91
2022-07-28T20:54:32.359Z,97928.03
2022-07-28T20:56:35.382Z,97946.41
2022-07-28T20:58:39.432Z,97941.03
2022-07-28T21:00:44.106Z,97954.38
2022-07-28T21:02:47.480Z,97946.97
2022-07-28T21:04:51.048Z,97950.84
2022-07-28T21:07:01.695Z,97962.31
2022-07-28T21:09:07.431Z,97970.13
2022-07-28T21:11:11.207Z,97982.59
2022-07-28T21:13:14.960Z,97994.69
2022-07-28T21:15:18.083Z,97996.94
2022-07-28T21:17:22.601Z,98003.69
2022-07-28T21:19:26.143Z,98012.06
2022-07-28T21:21:29.460Z,98025.59
2022-07-28T21:23:32.515Z,98024.91
2022-07-28T21:25:35.721Z,98031.91
2022-07-28T21:27:56.565Z,98042.50
2022-07-28T21:32:05.832Z,98036.44
2022-07-28T21:34:10.807Z,98040.19
2022-07-28T21:36:14.130Z,98050.84
2022-07-28T21:38:17.266Z,98049.88
2022-07-28T21:40:20.638Z,98044.25
2022-07-28T21:42:23.841Z,98027.38
2022-07-28T21:44:26.933Z,98017.69
2022-07-28T21:46:30.221Z,97994.47
2022-07-28T21:48:33.465Z,97978.25
2022-07-28T21:50:38.435Z,97967.03
2022-07-28T21:52:41.653Z,97947.38
2022-07-28T21:54:44.740Z,97945.56
2022-07-28T21:56:48.411Z,97951.78
2022-07-28T21:58:51.541Z,97952.78
2022-07-28T22:00:58.161Z,97949.66
2022-07-28T22:03:03.936Z,97956.19
2022-07-28T22:05:07.662Z,97960.69
2022-07-28T22:07:12.192Z,97965.81
2022-07-28T22:09:15.326Z,97972.44
2022-07-28T22:11:18.384Z,97985.38
2022-07-28T22:13:21.531Z,97987.00
2022-07-28T22:15:24.596Z,97986.63
2022-07-28T22:17:27.657Z,97977.84
2022-07-28T22:19:31.597Z,97979.88
2022-07-28T22:21:34.583Z,97981.31
2022-07-28T22:23:39.075Z,97980.16
2022-07-28T22:25:42.349Z,97971.34
2022-07-28T22:27:45.398Z,97973.84
2022-07-28T22:29:50.117Z,97971.53
2022-07-28T22:31:59.166Z,97971.03
2022-07-28T22:34:02.514Z,97962.59
2022-07-28T22:36:06.380Z,97970.31
2022-07-28T22:38:09.649Z,97970.31
2022-07-28T22:40:16.083Z,97965.81
2022-07-28T22:42:19.253Z,97969.28
2022-07-28T22:44:22.301Z,97971.13
2022-07-28T22:46:25.567Z,97973.16
2022-07-28T22:48:28.642Z,97977.47
2022-07-28T22:50:31.991Z,97982.78
2022-07-28T22:52:35.890Z,97990.75
2022-07-28T22:54:39.841Z,97990.31
2022-07-28T22:56:44.760Z,97995.19
2022-07-28T22:58:47.896Z,97984.22
2022-07-28T23:00:51.544Z,97976.44
2022-07-28T23:02:54.854Z,97977.53
2022-07-28T23:04:58.325Z,97983.19
2022-07-28T23:07:01.343Z,97983.56
2022-07-28T23:09:04.808Z,97991.88
2022-07-28T23:11:07.807Z,97991.13
2022-07-28T23:13:12.238Z,97987.69
2022-07-28T23:15:15.295Z,97989.88
2022-07-28T23:17:18.320Z,97998.84
2022-07-28T23:19:21.588Z,98003.88
2022-07-28T23:21:24.867Z,97998.75
2022-07-28T23:23:27.955Z,98002.41
2022-07-28T23:25:31.031Z,98010.38
2022-07-28T23:27:34.090Z,98013.50
2022-07-28T23:29:38.533Z,98003.53
2022-07-28T23:31:42.570Z,98003.03
2022-07-28T23:33:56.275Z,98001.41
2022-07-28T23:36:00.471Z,97988.47
2022-07-28T23:38:03.953Z,97993.47
2022-07-28T23:40:08.347Z,97971.94
2022-07-28T23:42:11.478Z,97969.16
2022-07-28T23:44:15.043Z,97955.78
2022-07-28T23:46:20.810Z,97958.13
2022-07-28T23:48:23.924Z,97961.66
2022-07-28T23:50:27.228Z,97960.56
2022-07-28T23:52:30.288Z,97971.53
2022-07-28T23:54:33.360Z,97973.84
2022-07-28T23:56:36.364Z,97970.72
2022-07-28T23:58:39.481Z,97974.56
